ETH629 WADD-WAAA
Flight info
| Callsign | ETH629 |
|---|---|
| Flight time | 0h 56m |
| Altitude | 39000 |
| Route | PEDET W41 LIPOT |
| Aircraft | B789/H-SDE1E2E3FGHIJ2J3J4J5M1RWXY/LB1D1 |
Departure
| Time | 2026-04-26 04:57 |
|---|---|
| Airport | Denpasar I Gusti Ngurah Rai International Airport (WADD) |
Arrival
| Time | 2026-04-26 05:53 |
|---|---|
| Airport | Sultan Hasanuddin International Airport (WAAA) |
| Time | Latitude | Longitude | Altitude | Speed | Heading |
|---|---|---|---|---|---|
| 2026-04-26 04:35 | -8.74548 | 115.16802 | 38 ft | 0 kts | 358° |
| 2026-04-26 04:47 | -8.74550 | 115.16802 | 38 ft | 2 kts | 358° |
| 2026-04-26 04:47 | -8.74576 | 115.16803 | 38 ft | 4 kts | 358° |
| 2026-04-26 04:48 | -8.74626 | 115.16805 | 36 ft | 2 kts | 358° |
| 2026-04-26 04:48 | -8.74650 | 115.16802 | 34 ft | 4 kts | 28° |
| 2026-04-26 04:48 | -8.74669 | 115.16785 | 36 ft | 4 kts | 63° |
| 2026-04-26 04:49 | -8.74677 | 115.16760 | 38 ft | 4 kts | 83° |
| 2026-04-26 04:49 | -8.74678 | 115.16750 | 38 ft | 0 kts | 88° |
| 2026-04-26 04:52 | -8.74678 | 115.16761 | 37 ft | 3 kts | 87° |
| 2026-04-26 04:52 | -8.74676 | 115.16792 | 36 ft | 6 kts | 87° |
| 2026-04-26 04:52 | -8.74674 | 115.16846 | 37 ft | 9 kts | 87° |
| 2026-04-26 04:52 | -8.74670 | 115.16924 | 37 ft | 13 kts | 87° |
| 2026-04-26 04:53 | -8.74666 | 115.17026 | 37 ft | 16 kts | 88° |
| 2026-04-26 04:53 | -8.74661 | 115.17149 | 37 ft | 19 kts | 88° |
| 2026-04-26 04:53 | -8.74656 | 115.17284 | 38 ft | 20 kts | 87° |
| 2026-04-26 04:53 | -8.74650 | 115.17427 | 38 ft | 21 kts | 88° |
| 2026-04-26 04:54 | -8.74643 | 115.17575 | 38 ft | 22 kts | 88° |
| 2026-04-26 04:54 | -8.74637 | 115.17728 | 38 ft | 21 kts | 87° |
| 2026-04-26 04:54 | -8.74631 | 115.17873 | 38 ft | 20 kts | 88° |
| 2026-04-26 04:54 | -8.74625 | 115.18005 | 38 ft | 15 kts | 87° |
| 2026-04-26 04:55 | -8.74648 | 115.18083 | 38 ft | 9 kts | 143° |
| 2026-04-26 04:55 | -8.74710 | 115.18095 | 36 ft | 11 kts | 175° |
| 2026-04-26 04:55 | -8.74782 | 115.18084 | 34 ft | 9 kts | 227° |
| 2026-04-26 04:55 | -8.74789 | 115.18056 | 35 ft | 0 kts | 266° |
| 2026-04-26 04:56 | -8.74791 | 115.18009 | 35 ft | 24 kts | 268° |
| 2026-04-26 04:56 | -8.74806 | 115.17613 | 34 ft | 91 kts | 268° |
| 2026-04-26 04:56 | -8.74843 | 115.16755 | 35 ft | 151 kts | 267° |
| 2026-04-26 04:57 | -8.74856 | 115.15640 | 623 ft | 153 kts | 273° |
| 2026-04-26 04:57 | -8.74797 | 115.14487 | 1114 ft | 180 kts | 272° |
| 2026-04-26 04:57 | -8.74725 | 115.13109 | 1570 ft | 211 kts | 271° |
| 2026-04-26 04:57 | -8.74689 | 115.11599 | 2405 ft | 216 kts | 270° |
| 2026-04-26 04:58 | -8.74671 | 115.10080 | 3313 ft | 220 kts | 271° |
| 2026-04-26 04:58 | -8.74649 | 115.08423 | 3782 ft | 251 kts | 271° |
| 2026-04-26 04:58 | -8.74742 | 115.06563 | 4296 ft | 279 kts | 253° |
| 2026-04-26 04:58 | -8.75733 | 115.04897 | 5355 ft | 279 kts | 226° |
| 2026-04-26 04:59 | -8.77376 | 115.03939 | 6348 ft | 281 kts | 190° |
| 2026-04-26 04:59 | -8.79307 | 115.04013 | 7309 ft | 280 kts | 159° |
| 2026-04-26 04:59 | -8.80914 | 115.05068 | 8269 ft | 279 kts | 128° |
| 2026-04-26 04:59 | -8.81866 | 115.06775 | 9172 ft | 282 kts | 113° |
| 2026-04-26 05:00 | -8.82640 | 115.08610 | 10113 ft | 285 kts | 111° |
| 2026-04-26 05:00 | -8.83420 | 115.10538 | 10591 ft | 309 kts | 112° |
| 2026-04-26 05:00 | -8.84295 | 115.12623 | 10837 ft | 336 kts | 112° |
| 2026-04-26 05:00 | -8.85139 | 115.14916 | 11001 ft | 361 kts | 99° |
| 2026-04-26 05:01 | -8.85182 | 115.17417 | 11747 ft | 363 kts | 82° |
| 2026-04-26 05:01 | -8.84386 | 115.19844 | 12505 ft | 368 kts | 60° |
| 2026-04-26 05:01 | -8.82814 | 115.21898 | 13234 ft | 373 kts | 48° |
| 2026-04-26 05:01 | -8.81018 | 115.23829 | 13966 ft | 378 kts | 46° |
| 2026-04-26 05:02 | -8.79182 | 115.25753 | 14645 ft | 383 kts | 47° |
| 2026-04-26 05:02 | -8.77359 | 115.27732 | 15319 ft | 387 kts | 48° |
| 2026-04-26 05:02 | -8.75541 | 115.29738 | 15969 ft | 391 kts | 48° |
| 2026-04-26 05:02 | -8.73669 | 115.31776 | 16625 ft | 395 kts | 47° |
| 2026-04-26 05:03 | -8.71779 | 115.33815 | 17218 ft | 400 kts | 47° |
| 2026-04-26 05:03 | -8.69874 | 115.35879 | 17841 ft | 404 kts | 48° |
| 2026-04-26 05:03 | -8.67952 | 115.37970 | 18390 ft | 408 kts | 48° |
| 2026-04-26 05:03 | -8.66011 | 115.40080 | 18902 ft | 411 kts | 47° |
| 2026-04-26 05:04 | -8.64054 | 115.42201 | 19402 ft | 415 kts | 47° |
| 2026-04-26 05:04 | -8.62074 | 115.44347 | 19912 ft | 418 kts | 47° |
| 2026-04-26 05:04 | -8.60088 | 115.46502 | 20392 ft | 421 kts | 47° |
| 2026-04-26 05:04 | -8.58763 | 115.47940 | 20714 ft | 423 kts | 47° |
| 2026-04-26 05:05 | -8.56744 | 115.50130 | 21192 ft | 427 kts | 47° |
| 2026-04-26 05:05 | -8.54021 | 115.53081 | 21800 ft | 431 kts | 47° |
| 2026-04-26 05:05 | -8.51969 | 115.55305 | 22247 ft | 434 kts | 47° |
| 2026-04-26 05:05 | -8.49930 | 115.57516 | 22677 ft | 437 kts | 47° |
| 2026-04-26 05:06 | -8.47848 | 115.59772 | 23095 ft | 440 kts | 47° |
| 2026-04-26 05:06 | -8.45753 | 115.62042 | 23485 ft | 443 kts | 47° |
| 2026-04-26 05:06 | -8.43640 | 115.64330 | 23820 ft | 446 kts | 47° |
| 2026-04-26 05:06 | -8.42206 | 115.65884 | 24053 ft | 448 kts | 47° |
| 2026-04-26 05:07 | -8.39383 | 115.68940 | 24492 ft | 451 kts | 47° |
| 2026-04-26 05:07 | -8.37236 | 115.71265 | 24834 ft | 453 kts | 47° |
| 2026-04-26 05:07 | -8.35085 | 115.73594 | 25151 ft | 455 kts | 47° |
| 2026-04-26 05:07 | -8.32919 | 115.75938 | 25462 ft | 457 kts | 47° |
| 2026-04-26 05:08 | -8.30744 | 115.78292 | 25786 ft | 460 kts | 47° |
| 2026-04-26 05:08 | -8.28558 | 115.80657 | 26110 ft | 462 kts | 47° |
| 2026-04-26 05:08 | -8.26360 | 115.83034 | 26434 ft | 464 kts | 47° |
| 2026-04-26 05:08 | -8.24152 | 115.85422 | 26755 ft | 466 kts | 47° |
| 2026-04-26 05:09 | -8.21931 | 115.87824 | 27068 ft | 469 kts | 47° |
| 2026-04-26 05:09 | -8.19701 | 115.90235 | 27393 ft | 471 kts | 47° |
| 2026-04-26 05:09 | -8.17479 | 115.92637 | 27727 ft | 473 kts | 47° |
| 2026-04-26 05:09 | -8.15226 | 115.95072 | 28054 ft | 476 kts | 47° |
| 2026-04-26 05:10 | -8.12962 | 115.97519 | 28400 ft | 478 kts | 47° |
| 2026-04-26 05:10 | -8.10682 | 115.99981 | 28723 ft | 481 kts | 47° |
| 2026-04-26 05:10 | -8.08394 | 116.02453 | 29058 ft | 483 kts | 47° |
| 2026-04-26 05:10 | -8.06839 | 116.04133 | 29281 ft | 485 kts | 47° |
| 2026-04-26 05:11 | -8.04530 | 116.06626 | 29620 ft | 488 kts | 47° |
| 2026-04-26 05:11 | -8.02238 | 116.09101 | 29931 ft | 490 kts | 47° |
| 2026-04-26 05:11 | -7.99908 | 116.11615 | 30223 ft | 492 kts | 47° |
| 2026-04-26 05:11 | -7.97567 | 116.14142 | 30559 ft | 493 kts | 47° |
| 2026-04-26 05:12 | -7.95221 | 116.16674 | 30874 ft | 495 kts | 47° |
| 2026-04-26 05:12 | -7.92868 | 116.19213 | 31184 ft | 496 kts | 47° |
| 2026-04-26 05:12 | -7.90506 | 116.21761 | 31488 ft | 498 kts | 47° |
| 2026-04-26 05:12 | -7.88130 | 116.24323 | 31790 ft | 499 kts | 47° |
| 2026-04-26 05:13 | -7.85758 | 116.26881 | 32083 ft | 501 kts | 47° |
| 2026-04-26 05:13 | -7.83377 | 116.29448 | 32480 ft | 500 kts | 47° |
| 2026-04-26 05:13 | -7.81008 | 116.32002 | 32962 ft | 498 kts | 47° |
| 2026-04-26 05:13 | -7.78646 | 116.34548 | 33454 ft | 495 kts | 47° |
| 2026-04-26 05:14 | -7.76294 | 116.37082 | 33914 ft | 493 kts | 47° |
| 2026-04-26 05:14 | -7.73950 | 116.39608 | 34324 ft | 492 kts | 47° |
| 2026-04-26 05:14 | -7.71615 | 116.42122 | 34691 ft | 491 kts | 47° |
| 2026-04-26 05:14 | -7.69277 | 116.44640 | 35055 ft | 490 kts | 47° |
| 2026-04-26 05:15 | -7.66978 | 116.47117 | 35427 ft | 489 kts | 47° |
| 2026-04-26 05:15 | -7.64656 | 116.49616 | 35793 ft | 488 kts | 47° |
| 2026-04-26 05:15 | -7.62333 | 116.52117 | 36163 ft | 487 kts | 47° |
| 2026-04-26 05:15 | -7.60014 | 116.54613 | 36525 ft | 486 kts | 47° |
| 2026-04-26 05:16 | -7.57705 | 116.57098 | 36883 ft | 486 kts | 47° |
| 2026-04-26 05:16 | -7.55395 | 116.59582 | 37247 ft | 484 kts | 47° |
| 2026-04-26 05:16 | -7.53095 | 116.62056 | 37634 ft | 483 kts | 47° |
| 2026-04-26 05:16 | -7.50811 | 116.64540 | 37968 ft | 482 kts | 51° |
| 2026-04-26 05:17 | -7.48667 | 116.67133 | 38271 ft | 481 kts | 50° |
| 2026-04-26 05:17 | -7.46498 | 116.69703 | 38604 ft | 480 kts | 49° |
| 2026-04-26 05:17 | -7.44330 | 116.72267 | 38839 ft | 481 kts | 50° |
| 2026-04-26 05:17 | -7.42162 | 116.74859 | 38844 ft | 484 kts | 50° |
| 2026-04-26 05:18 | -7.37860 | 116.80004 | 38831 ft | 480 kts | 50° |
| 2026-04-26 05:18 | -7.33556 | 116.85127 | 38839 ft | 477 kts | 50° |
| 2026-04-26 05:19 | -7.29275 | 116.90235 | 38843 ft | 477 kts | 50° |
| 2026-04-26 05:19 | -7.24994 | 116.95334 | 38839 ft | 476 kts | 50° |
| 2026-04-26 05:20 | -7.20715 | 117.00433 | 38839 ft | 476 kts | 50° |
| 2026-04-26 05:20 | -7.16436 | 117.05528 | 38840 ft | 476 kts | 50° |
| 2026-04-26 05:21 | -7.12152 | 117.10628 | 38840 ft | 477 kts | 50° |
| 2026-04-26 05:21 | -7.07890 | 117.15699 | 38840 ft | 478 kts | 50° |
| 2026-04-26 05:22 | -7.03600 | 117.20804 | 38845 ft | 477 kts | 50° |
| 2026-04-26 05:22 | -6.99311 | 117.25905 | 38846 ft | 478 kts | 50° |
| 2026-04-26 05:23 | -6.95006 | 117.31023 | 38844 ft | 477 kts | 50° |
| 2026-04-26 05:23 | -6.90739 | 117.36096 | 38846 ft | 477 kts | 50° |
| 2026-04-26 05:24 | -6.86449 | 117.41193 | 38845 ft | 477 kts | 50° |
| 2026-04-26 05:24 | -6.82164 | 117.46283 | 38845 ft | 477 kts | 50° |
| 2026-04-26 05:25 | -6.77871 | 117.51381 | 38846 ft | 476 kts | 50° |
| 2026-04-26 05:25 | -6.73584 | 117.56469 | 38832 ft | 477 kts | 51° |
| 2026-04-26 05:26 | -6.69260 | 117.61603 | 38846 ft | 483 kts | 51° |
| 2026-04-26 05:26 | -6.64493 | 117.66306 | 38852 ft | 483 kts | 44° |
| 2026-04-26 05:27 | -6.59555 | 117.70896 | 38855 ft | 484 kts | 44° |
| 2026-04-26 05:27 | -6.54587 | 117.75477 | 38855 ft | 484 kts | 44° |
| 2026-04-26 05:28 | -6.49634 | 117.80062 | 38854 ft | 484 kts | 44° |
| 2026-04-26 05:28 | -6.44671 | 117.84646 | 38850 ft | 484 kts | 44° |
| 2026-04-26 05:29 | -6.39714 | 117.89227 | 38849 ft | 484 kts | 44° |
| 2026-04-26 05:29 | -6.34754 | 117.93808 | 38848 ft | 484 kts | 44° |
| 2026-04-26 05:30 | -6.29784 | 117.98398 | 38850 ft | 486 kts | 44° |
| 2026-04-26 05:30 | -6.24801 | 118.02997 | 38851 ft | 487 kts | 44° |
| 2026-04-26 05:31 | -6.19841 | 118.07576 | 38854 ft | 487 kts | 44° |
| 2026-04-26 05:31 | -6.14843 | 118.12187 | 38853 ft | 487 kts | 44° |
| 2026-04-26 05:32 | -6.09856 | 118.16787 | 38853 ft | 486 kts | 44° |
| 2026-04-26 05:32 | -6.07364 | 118.19085 | 38721 ft | 484 kts | 44° |
| 2026-04-26 05:32 | -6.04879 | 118.21377 | 38257 ft | 486 kts | 44° |
| 2026-04-26 05:33 | -6.02386 | 118.23676 | 37831 ft | 487 kts | 44° |
| 2026-04-26 05:33 | -5.99904 | 118.25964 | 37398 ft | 488 kts | 44° |
| 2026-04-26 05:33 | -5.97404 | 118.28268 | 36962 ft | 488 kts | 44° |
| 2026-04-26 05:33 | -5.94906 | 118.30569 | 36497 ft | 485 kts | 44° |
| 2026-04-26 05:34 | -5.92420 | 118.32860 | 35803 ft | 484 kts | 44° |
| 2026-04-26 05:34 | -5.89943 | 118.35144 | 35080 ft | 483 kts | 44° |
| 2026-04-26 05:34 | -5.87496 | 118.37398 | 34336 ft | 484 kts | 44° |
| 2026-04-26 05:34 | -5.85013 | 118.39685 | 33522 ft | 484 kts | 44° |
| 2026-04-26 05:35 | -5.82530 | 118.41972 | 32721 ft | 483 kts | 44° |
| 2026-04-26 05:35 | -5.80053 | 118.44253 | 31883 ft | 483 kts | 44° |
| 2026-04-26 05:35 | -5.77571 | 118.46543 | 31008 ft | 485 kts | 44° |
| 2026-04-26 05:35 | -5.75085 | 118.48844 | 30088 ft | 488 kts | 44° |
| 2026-04-26 05:36 | -5.72570 | 118.51170 | 29097 ft | 491 kts | 44° |
| 2026-04-26 05:36 | -5.70060 | 118.53487 | 28160 ft | 490 kts | 44° |
| 2026-04-26 05:36 | -5.67580 | 118.55775 | 27250 ft | 487 kts | 44° |
| 2026-04-26 05:36 | -5.65086 | 118.58079 | 26344 ft | 485 kts | 44° |
| 2026-04-26 05:37 | -5.62608 | 118.60370 | 25460 ft | 483 kts | 44° |
| 2026-04-26 05:37 | -5.60140 | 118.62648 | 24575 ft | 481 kts | 43° |
| 2026-04-26 05:37 | -5.57686 | 118.64913 | 23705 ft | 478 kts | 43° |
| 2026-04-26 05:37 | -5.55240 | 118.67170 | 22777 ft | 475 kts | 43° |
| 2026-04-26 05:38 | -5.52823 | 118.69401 | 21915 ft | 469 kts | 43° |
| 2026-04-26 05:38 | -5.50435 | 118.71605 | 21068 ft | 463 kts | 43° |
| 2026-04-26 05:38 | -5.48075 | 118.73783 | 20231 ft | 458 kts | 43° |
| 2026-04-26 05:38 | -5.45744 | 118.75934 | 19417 ft | 452 kts | 43° |
| 2026-04-26 05:39 | -5.43441 | 118.78058 | 18602 ft | 447 kts | 43° |
| 2026-04-26 05:39 | -5.41163 | 118.80159 | 17759 ft | 443 kts | 43° |
| 2026-04-26 05:39 | -5.38941 | 118.82209 | 16977 ft | 435 kts | 43° |
| 2026-04-26 05:39 | -5.36732 | 118.84246 | 16195 ft | 428 kts | 43° |
| 2026-04-26 05:40 | -5.34561 | 118.86249 | 15439 ft | 421 kts | 43° |
| 2026-04-26 05:40 | -5.32465 | 118.88260 | 14696 ft | 413 kts | 49° |
| 2026-04-26 05:40 | -5.30857 | 118.90612 | 13937 ft | 400 kts | 62° |
| 2026-04-26 05:40 | -5.29903 | 118.93076 | 13225 ft | 360 kts | 76° |
| 2026-04-26 05:41 | -5.29514 | 118.95455 | 12757 ft | 340 kts | 87° |
| 2026-04-26 05:41 | -5.29487 | 118.97792 | 12447 ft | 328 kts | 89° |
| 2026-04-26 05:41 | -5.29466 | 119.00049 | 12055 ft | 320 kts | 89° |
| 2026-04-26 05:41 | -5.29455 | 119.02261 | 11642 ft | 314 kts | 90° |
| 2026-04-26 05:42 | -5.29450 | 119.04424 | 11216 ft | 302 kts | 90° |
| 2026-04-26 05:42 | -5.29444 | 119.06469 | 10840 ft | 289 kts | 89° |
| 2026-04-26 05:42 | -5.29435 | 119.08466 | 10470 ft | 284 kts | 90° |
| 2026-04-26 05:42 | -5.29427 | 119.10409 | 10109 ft | 280 kts | 90° |
| 2026-04-26 05:43 | -5.29420 | 119.12328 | 9989 ft | 266 kts | 90° |
| 2026-04-26 05:43 | -5.29414 | 119.14122 | 9972 ft | 248 kts | 90° |
| 2026-04-26 05:43 | -5.29407 | 119.15798 | 9813 ft | 231 kts | 90° |
| 2026-04-26 05:43 | -5.29400 | 119.17421 | 9073 ft | 234 kts | 90° |
| 2026-04-26 05:44 | -5.29394 | 119.19051 | 8592 ft | 234 kts | 90° |
| 2026-04-26 05:44 | -5.29388 | 119.20659 | 8358 ft | 229 kts | 90° |
| 2026-04-26 05:44 | -5.29381 | 119.22255 | 8050 ft | 228 kts | 90° |
| 2026-04-26 05:44 | -5.29375 | 119.23847 | 7762 ft | 227 kts | 90° |
| 2026-04-26 05:45 | -5.29368 | 119.25428 | 7467 ft | 226 kts | 90° |
| 2026-04-26 05:45 | -5.29362 | 119.27000 | 7194 ft | 225 kts | 90° |
| 2026-04-26 05:45 | -5.29355 | 119.28565 | 6913 ft | 224 kts | 89° |
| 2026-04-26 05:45 | -5.29349 | 119.30123 | 6655 ft | 222 kts | 89° |
| 2026-04-26 05:46 | -5.29342 | 119.31671 | 6374 ft | 222 kts | 89° |
| 2026-04-26 05:46 | -5.29336 | 119.33215 | 6091 ft | 221 kts | 89° |
| 2026-04-26 05:46 | -5.29330 | 119.34729 | 5819 ft | 219 kts | 89° |
| 2026-04-26 05:46 | -5.29323 | 119.36255 | 5535 ft | 218 kts | 89° |
| 2026-04-26 05:47 | -5.29316 | 119.37756 | 5304 ft | 213 kts | 89° |
| 2026-04-26 05:47 | -5.29310 | 119.39247 | 4959 ft | 214 kts | 89° |
| 2026-04-26 05:47 | -5.29304 | 119.40734 | 4623 ft | 213 kts | 89° |
| 2026-04-26 05:47 | -5.29182 | 119.42204 | 4221 ft | 212 kts | 71° |
| 2026-04-26 05:48 | -5.28255 | 119.43299 | 4114 ft | 213 kts | 37° |
| 2026-04-26 05:48 | -5.26979 | 119.44114 | 3889 ft | 217 kts | 31° |
| 2026-04-26 05:48 | -5.25671 | 119.44873 | 3607 ft | 218 kts | 30° |
| 2026-04-26 05:48 | -5.24364 | 119.45631 | 3334 ft | 216 kts | 30° |
| 2026-04-26 05:49 | -5.23072 | 119.46379 | 3054 ft | 212 kts | 30° |
| 2026-04-26 05:49 | -5.20569 | 119.47830 | 2504 ft | 206 kts | 30° |
| 2026-04-26 05:49 | -5.19340 | 119.48543 | 2259 ft | 200 kts | 30° |
| 2026-04-26 05:50 | -5.18166 | 119.49224 | 1993 ft | 189 kts | 30° |
| 2026-04-26 05:50 | -5.17048 | 119.49873 | 1751 ft | 183 kts | 29° |
| 2026-04-26 05:50 | -5.15957 | 119.50505 | 1525 ft | 177 kts | 29° |
| 2026-04-26 05:50 | -5.14904 | 119.51117 | 1291 ft | 173 kts | 29° |
| 2026-04-26 05:51 | -5.13882 | 119.51710 | 1087 ft | 168 kts | 28° |
| 2026-04-26 05:51 | -5.12879 | 119.52292 | 889 ft | 167 kts | 27° |
| 2026-04-26 05:51 | -5.11895 | 119.52865 | 678 ft | 160 kts | 27° |
| 2026-04-26 05:51 | -5.10939 | 119.53418 | 465 ft | 165 kts | 28° |
| 2026-04-26 05:52 | -5.09962 | 119.53993 | 237 ft | 161 kts | 28° |
| 2026-04-26 05:52 | -5.08994 | 119.54545 | 52 ft | 156 kts | 27° |
| 2026-04-26 05:52 | -5.08197 | 119.54997 | 45 ft | 108 kts | 30° |
| 2026-04-26 05:52 | -5.07682 | 119.55296 | 47 ft | 61 kts | 30° |
| 2026-04-26 05:53 | -5.07393 | 119.55434 | 46 ft | 33 kts | 6° |
| 2026-04-26 05:53 | -5.07293 | 119.55432 | 45 ft | 4 kts | 356° |
| 2026-04-26 05:53 | -5.07263 | 119.55430 | 46 ft | 5 kts | 356° |
| 2026-04-26 05:53 | -5.07228 | 119.55424 | 46 ft | 5 kts | 338° |
| 2026-04-26 05:54 | -5.07212 | 119.55407 | 44 ft | 2 kts | 296° |
| 2026-04-26 05:54 | -5.07211 | 119.55388 | 46 ft | 3 kts | 263° |
| 2026-04-26 05:54 | -5.07226 | 119.55361 | 46 ft | 6 kts | 229° |
| 2026-04-26 05:54 | -5.07269 | 119.55330 | 46 ft | 10 kts | 210° |
| 2026-04-26 05:55 | -5.07338 | 119.55290 | 47 ft | 13 kts | 210° |
| 2026-04-26 05:55 | -5.07397 | 119.55256 | 47 ft | 16 kts | 210° |
| 2026-04-26 05:55 | -5.07535 | 119.55177 | 47 ft | 18 kts | 210° |
| 2026-04-26 05:55 | -5.07610 | 119.55127 | 47 ft | 12 kts | 230° |
| 2026-04-26 05:56 | -5.07609 | 119.55066 | 47 ft | 9 kts | 294° |
| 2026-04-26 05:56 | -5.07589 | 119.55026 | 47 ft | 10 kts | 295° |
| 2026-04-26 05:56 | -5.07600 | 119.54928 | 47 ft | 12 kts | 244° |
| 2026-04-26 05:56 | -5.07662 | 119.54876 | 47 ft | 11 kts | 208° |
| 2026-04-26 05:57 | -5.07708 | 119.54851 | 47 ft | 12 kts | 209° |
| 2026-04-26 05:57 | -5.07793 | 119.54801 | 47 ft | 9 kts | 210° |
| 2026-04-26 05:57 | -5.07821 | 119.54784 | 47 ft | 4 kts | 210° |
| 2026-04-26 05:57 | -5.07831 | 119.54769 | 47 ft | 2 kts | 250° |
| 2026-04-26 05:58 | -5.07831 | 119.54749 | 47 ft | 3 kts | 278° |
| 2026-04-26 05:58 | -5.07822 | 119.54727 | 47 ft | 4 kts | 300° |
| 2026-04-26 05:58 | -5.07815 | 119.54714 | 44 ft | 0 kts | 298° |